createdAt,value
2018-08-17T00:01:13.397Z,97974.00
2018-08-17T00:03:43.975Z,97975.00
2018-08-17T00:06:14.095Z,97978.00
2018-08-17T00:08:44.212Z,97972.00
2018-08-17T00:11:14.329Z,97978.00
2018-08-17T00:13:44.809Z,97973.00
2018-08-17T00:16:15.110Z,97977.00
2018-08-17T00:18:45.255Z,97978.00
2018-08-17T00:21:15.352Z,97970.00
2018-08-17T00:23:45.551Z,97973.00
2018-08-17T00:26:15.605Z,97967.00
2018-08-17T00:28:45.748Z,97970.00
2018-08-17T00:31:15.958Z,97968.00
2018-08-17T00:33:46.072Z,97970.00
2018-08-17T00:36:16.214Z,97968.00
2018-08-17T00:38:46.320Z,97966.00
2018-08-17T00:41:16.456Z,97964.00
2018-08-17T00:43:46.777Z,97968.00
2018-08-17T00:46:17.015Z,97967.00
2018-08-17T00:48:47.843Z,97969.00
2018-08-17T00:51:18.659Z,97964.00
2018-08-17T00:53:48.776Z,97964.00
2018-08-17T00:56:19.019Z,97967.00
2018-08-17T00:58:49.143Z,97967.00
2018-08-17T01:01:19.362Z,97968.00
2018-08-17T01:03:49.445Z,97975.00
2018-08-17T01:06:19.497Z,97971.00
2018-08-17T01:08:49.638Z,97977.00
2018-08-17T01:11:19.735Z,97973.00
2018-08-17T01:13:49.999Z,97968.00
2018-08-17T01:16:20.044Z,97970.00
2018-08-17T01:18:50.199Z,97970.00
2018-08-17T01:21:20.781Z,97967.00
2018-08-17T01:23:51.331Z,97969.00
2018-08-17T01:26:21.529Z,97969.00
2018-08-17T01:28:51.653Z,97974.00
2018-08-17T01:31:22.490Z,97970.00
2018-08-17T01:33:52.611Z,97970.00
2018-08-17T01:36:22.821Z,97975.00
2018-08-17T01:38:52.999Z,97974.00
2018-08-17T01:41:23.069Z,97970.00
2018-08-17T01:43:53.234Z,97966.00
2018-08-17T01:46:23.449Z,97969.00
2018-08-17T01:48:53.470Z,97962.00
2018-08-17T01:51:23.544Z,97968.00
2018-08-17T01:53:54.216Z,97965.00
2018-08-17T01:56:24.199Z,97969.00
2018-08-17T01:58:54.382Z,97968.00
2018-08-17T02:01:24.502Z,97964.00
2018-08-17T02:03:54.773Z,97966.00
2018-08-17T02:06:24.802Z,97967.00
2018-08-17T02:08:54.898Z,97963.00
2018-08-17T02:11:24.985Z,97963.00
2018-08-17T02:13:55.072Z,97962.00
2018-08-17T02:16:25.230Z,97964.00
2018-08-17T02:18:55.324Z,97966.00
2018-08-17T02:21:25.533Z,97968.00
2018-08-17T02:23:55.918Z,97966.00
2018-08-17T02:26:25.976Z,97967.00
2018-08-17T02:28:56.540Z,97965.00
2018-08-17T02:31:26.666Z,97962.00
2018-08-17T02:33:56.815Z,97965.00
2018-08-17T02:36:26.983Z,97962.00
2018-08-17T02:38:57.149Z,97961.00
2018-08-17T02:41:27.324Z,97960.00
2018-08-17T02:43:57.404Z,97960.00
2018-08-17T02:46:28.019Z,97962.00
2018-08-17T02:48:58.305Z,97960.00
2018-08-17T02:51:28.328Z,97965.00
2018-08-17T02:53:58.729Z,97965.00
2018-08-17T02:56:28.959Z,97966.00
2018-08-17T02:58:59.124Z,97969.00
2018-08-17T03:01:29.355Z,97971.00
2018-08-17T03:04:00.083Z,97964.00
2018-08-17T03:06:30.163Z,97964.00
2018-08-17T03:09:00.299Z,97958.00
2018-08-17T03:11:30.483Z,97956.00
2018-08-17T03:14:00.710Z,97960.00
2018-08-17T03:16:30.760Z,97958.00
2018-08-17T03:19:00.927Z,97956.00
2018-08-17T03:21:30.986Z,97957.00
2018-08-17T03:24:01.253Z,97953.00
2018-08-17T03:26:31.392Z,97958.00
2018-08-17T03:29:01.497Z,97957.00
2018-08-17T03:31:31.752Z,97960.00
2018-08-17T03:34:01.857Z,97954.00
2018-08-17T03:36:31.932Z,97956.00
2018-08-17T03:39:02.009Z,97956.00
2018-08-17T03:41:32.073Z,97964.00
2018-08-17T03:44:02.196Z,97970.00
2018-08-17T03:46:32.277Z,97968.00
2018-08-17T03:49:02.428Z,97969.00
2018-08-17T03:51:32.551Z,97970.00
2018-08-17T03:54:02.667Z,97974.00
2018-08-17T03:56:33.007Z,97973.00
2018-08-17T03:59:03.147Z,97975.00
2018-08-17T04:01:33.189Z,97974.00
2018-08-17T04:04:03.325Z,97975.00
2018-08-17T04:06:33.402Z,97976.00
2018-08-17T04:09:04.675Z,97981.00
2018-08-17T04:11:34.911Z,97979.00
2018-08-17T04:14:05.105Z,97987.00
2018-08-17T04:16:35.269Z,97985.00
2018-08-17T04:19:05.465Z,97980.00
2018-08-17T04:21:35.621Z,97991.00
2018-08-17T04:24:06.346Z,97994.00
2018-08-17T04:26:36.495Z,97994.00
2018-08-17T04:29:06.599Z,97996.00
2018-08-17T04:31:36.731Z,97995.00
2018-08-17T04:34:06.915Z,97994.00
2018-08-17T04:36:37.190Z,97995.00
2018-08-17T04:39:08.105Z,97997.00
2018-08-17T04:41:38.757Z,98004.00
2018-08-17T04:44:08.983Z,98005.00
2018-08-17T04:46:39.194Z,98004.00
2018-08-17T04:49:09.411Z,98007.00
2018-08-17T04:51:39.517Z,98009.00
2018-08-17T04:54:09.752Z,98011.00
2018-08-17T04:56:39.879Z,98013.00
2018-08-17T04:59:10.059Z,98017.00
2018-08-17T05:01:40.171Z,98016.00
2018-08-17T05:04:10.234Z,98019.00
2018-08-17T05:06:40.413Z,98015.00
2018-08-17T05:09:10.501Z,98020.00
2018-08-17T05:11:40.626Z,98021.00
2018-08-17T05:14:10.786Z,98024.00
2018-08-17T05:16:40.861Z,98022.00
2018-08-17T05:19:11.043Z,98026.00
2018-08-17T05:21:41.153Z,98027.00
2018-08-17T05:24:11.182Z,98027.00
2018-08-17T05:26:41.239Z,98030.00
2018-08-17T05:29:11.383Z,98031.00
2018-08-17T05:31:41.537Z,98035.00
2018-08-17T05:34:12.142Z,98035.00
2018-08-17T05:36:42.417Z,98037.00
2018-08-17T05:39:12.797Z,98040.00
2018-08-17T05:41:42.989Z,98043.00
2018-08-17T05:44:13.084Z,98039.00
2018-08-17T05:46:43.665Z,98041.00
2018-08-17T05:49:13.788Z,98044.00
2018-08-17T05:51:43.799Z,98043.00
2018-08-17T05:54:13.951Z,98041.00
2018-08-17T05:56:44.150Z,98043.00
2018-08-17T05:59:14.228Z,98041.00
2018-08-17T06:01:44.857Z,98046.00
2018-08-17T06:04:14.921Z,98042.00
2018-08-17T06:06:44.993Z,98047.00
2018-08-17T06:09:16.059Z,98053.00
2018-08-17T06:11:46.252Z,98055.00
2018-08-17T06:14:16.327Z,98055.00
2018-08-17T06:16:46.453Z,98055.00
2018-08-17T06:19:16.917Z,98055.00
2018-08-17T06:21:46.969Z,98048.00
2018-08-17T06:24:17.171Z,98049.00
2018-08-17T06:26:47.351Z,98052.00
2018-08-17T06:29:17.456Z,98050.00
2018-08-17T06:31:48.408Z,98048.00
2018-08-17T06:34:18.368Z,98046.00
2018-08-17T06:36:48.516Z,98050.00
2018-08-17T06:39:20.184Z,98046.00
2018-08-17T06:41:50.232Z,98046.00
2018-08-17T06:44:20.432Z,98045.00
2018-08-17T06:46:50.562Z,98048.00
2018-08-17T06:49:20.750Z,98054.00
2018-08-17T06:51:50.951Z,98059.00
2018-08-17T06:54:21.118Z,98063.00
2018-08-17T06:56:51.294Z,98062.00
2018-08-17T06:59:21.543Z,98060.00
2018-08-17T07:01:51.731Z,98062.00
2018-08-17T07:04:21.846Z,98056.00
2018-08-17T07:06:52.124Z,98059.00
2018-08-17T07:09:22.413Z,98057.00
2018-08-17T07:11:52.834Z,98052.00
2018-08-17T07:14:23.042Z,98053.00
2018-08-17T07:16:53.131Z,98052.00
2018-08-17T07:19:23.391Z,98056.00
2018-08-17T07:21:53.597Z,98055.00
2018-08-17T07:24:23.877Z,98048.00
2018-08-17T07:26:53.980Z,98054.00
2018-08-17T07:29:24.647Z,98053.00
2018-08-17T07:31:54.767Z,98050.00
2018-08-17T07:34:24.963Z,98048.00
2018-08-17T07:36:55.050Z,98051.00
2018-08-17T07:39:25.161Z,98052.00
2018-08-17T07:41:55.313Z,98051.00
2018-08-17T07:44:25.494Z,98051.00
2018-08-17T07:46:55.573Z,98057.00
2018-08-17T07:49:25.851Z,98058.00
2018-08-17T07:51:56.054Z,98056.00
2018-08-17T07:54:26.176Z,98050.00
2018-08-17T07:56:56.295Z,98059.00
2018-08-17T07:59:26.343Z,98059.00
2018-08-17T08:01:56.351Z,98054.00
2018-08-17T08:04:26.587Z,98054.00
2018-08-17T08:06:57.519Z,98059.00
2018-08-17T08:09:27.667Z,98057.00
2018-08-17T08:11:57.811Z,98048.00
2018-08-17T08:14:27.935Z,98057.00
2018-08-17T08:16:59.510Z,98056.00
2018-08-17T08:19:29.936Z,98055.00
2018-08-17T08:22:00.161Z,98053.00
2018-08-17T08:24:30.639Z,98057.00
2018-08-17T08:27:00.840Z,98060.00
2018-08-17T08:29:30.923Z,98060.00
2018-08-17T08:32:00.996Z,98066.00
2018-08-17T08:34:31.157Z,98061.00
2018-08-17T08:37:01.313Z,98061.00
2018-08-17T08:39:31.371Z,98064.00
2018-08-17T08:42:01.468Z,98059.00
2018-08-17T08:44:31.523Z,98064.00
2018-08-17T08:47:01.661Z,98062.00
2018-08-17T08:49:32.265Z,98061.00
2018-08-17T08:52:02.467Z,98061.00
2018-08-17T08:54:32.609Z,98057.00
2018-08-17T08:57:02.777Z,98058.00
2018-08-17T08:59:33.409Z,98055.00
2018-08-17T09:02:03.697Z,98055.00
2018-08-17T09:04:33.778Z,98055.00
2018-08-17T09:07:03.950Z,98052.00
2018-08-17T09:09:34.198Z,98054.00
2018-08-17T09:12:04.418Z,98055.00
2018-08-17T09:14:34.668Z,98048.00
2018-08-17T09:17:04.862Z,98053.00
2018-08-17T09:19:35.546Z,98055.00
2018-08-17T09:22:05.679Z,98056.00
2018-08-17T09:24:35.883Z,98057.00
2018-08-17T09:27:06.713Z,98048.00
2018-08-17T09:29:37.038Z,98043.00
2018-08-17T09:32:08.359Z,98040.00
2018-08-17T09:34:57.985Z,98035.00
2018-08-17T09:37:28.072Z,98032.00
2018-08-17T09:39:58.262Z,98032.00
2018-08-17T09:42:28.466Z,98031.00
2018-08-17T09:44:58.806Z,98026.00
2018-08-17T09:47:29.018Z,98026.00
2018-08-17T09:50:08.592Z,98023.00
2018-08-17T09:52:38.720Z,98022.00
2018-08-17T09:55:09.441Z,98017.00
2018-08-17T09:57:39.645Z,98014.00
2018-08-17T10:00:11.051Z,98013.00
2018-08-17T10:02:46.353Z,98013.00
2018-08-17T10:05:21.819Z,98013.00
2018-08-17T10:07:57.101Z,98005.00
2018-08-17T10:10:27.279Z,98002.00
2018-08-17T10:12:57.459Z,98001.00
2018-08-17T10:15:27.557Z,98007.00
2018-08-17T10:17:57.653Z,98004.00
2018-08-17T10:20:29.038Z,97999.00
2018-08-17T10:22:59.210Z,98004.00
2018-08-17T10:25:29.309Z,98003.00
2018-08-17T10:27:59.328Z,97999.00
2018-08-17T10:30:29.541Z,97994.00
2018-08-17T10:33:00.778Z,97998.00
2018-08-17T10:35:33.852Z,97997.00
2018-08-17T10:38:05.236Z,98000.00
2018-08-17T10:40:35.325Z,98001.00
2018-08-17T10:43:06.760Z,97999.00
2018-08-17T10:45:36.952Z,97998.00
2018-08-17T10:48:07.214Z,97998.00
2018-08-17T10:50:37.320Z,97997.00
2018-08-17T10:53:07.470Z,97998.00
2018-08-17T10:55:43.190Z,97985.00
2018-08-17T10:58:15.234Z,97982.00
2018-08-17T11:00:45.348Z,97982.00
2018-08-17T11:03:15.440Z,97982.00
2018-08-17T11:05:45.580Z,97976.00
2018-08-17T11:08:15.686Z,97979.00
2018-08-17T11:10:45.837Z,97978.00
2018-08-17T11:13:15.946Z,97977.00
2018-08-17T11:15:46.118Z,97972.00
2018-08-17T11:18:16.286Z,97977.00
2018-08-17T11:20:46.367Z,97975.00
2018-08-17T11:23:16.472Z,97974.00
2018-08-17T11:25:46.866Z,97977.00
2018-08-17T11:28:16.959Z,97981.00
2018-08-17T11:30:47.101Z,97974.00
2018-08-17T11:33:18.108Z,97977.00
2018-08-17T11:35:48.267Z,97978.00
2018-08-17T11:38:19.241Z,97980.00
2018-08-17T11:40:49.478Z,97983.00
2018-08-17T11:43:19.704Z,97976.00
2018-08-17T11:45:50.514Z,97973.00
2018-08-17T11:48:27.805Z,97965.00
2018-08-17T11:50:58.207Z,97974.00
2018-08-17T11:53:28.519Z,97971.00
2018-08-17T11:55:58.628Z,97972.00
2018-08-17T11:58:28.709Z,97968.00
2018-08-17T12:00:58.948Z,97964.00
2018-08-17T12:03:29.760Z,97963.00
2018-08-17T12:05:59.920Z,97961.00
2018-08-17T12:08:29.985Z,97965.00
2018-08-17T12:11:04.287Z,97961.00
2018-08-17T12:13:37.583Z,97960.00
2018-08-17T12:16:11.924Z,97967.00
2018-08-17T12:18:42.781Z,97960.00
2018-08-17T12:21:12.890Z,97960.00
2018-08-17T12:23:43.517Z,97953.00
2018-08-17T12:26:14.432Z,97951.00
2018-08-17T12:28:44.930Z,97949.00
2018-08-17T12:31:15.360Z,97949.00
2018-08-17T12:33:45.363Z,97946.00
2018-08-17T12:36:15.501Z,97948.00
2018-08-17T12:38:45.551Z,97941.00
2018-08-17T12:41:15.575Z,97940.00
2018-08-17T12:43:46.471Z,97935.00
2018-08-17T12:46:16.595Z,97930.00
2018-08-17T12:48:46.705Z,97933.00
2018-08-17T12:51:16.908Z,97935.00
2018-08-17T12:53:47.027Z,97934.00
2018-08-17T12:56:17.187Z,97935.00
2018-08-17T12:58:47.341Z,97925.00
2018-08-17T13:01:17.484Z,97923.00
2018-08-17T13:03:47.588Z,97921.00
2018-08-17T13:06:18.781Z,97920.00
2018-08-17T13:08:48.925Z,97914.00
2018-08-17T13:11:19.013Z,97917.00
2018-08-17T13:13:53.033Z,97908.00
2018-08-17T13:16:23.253Z,97909.00
2018-08-17T13:18:53.452Z,97902.00
2018-08-17T13:21:23.605Z,97900.00
2018-08-17T13:23:53.755Z,97902.00
2018-08-17T13:26:23.859Z,97899.00
2018-08-17T13:28:53.863Z,97895.00
2018-08-17T13:31:24.738Z,97893.00
2018-08-17T13:33:55.085Z,97901.00
2018-08-17T13:36:25.195Z,97899.00
2018-08-17T13:38:55.301Z,97895.00
2018-08-17T13:41:25.917Z,97896.00
2018-08-17T13:43:56.069Z,97900.00
2018-08-17T13:46:26.167Z,97900.00
2018-08-17T13:48:56.381Z,97889.00
2018-08-17T13:51:26.477Z,97891.00
2018-08-17T13:53:56.557Z,97895.00
2018-08-17T13:56:26.721Z,97887.00
2018-08-17T13:58:56.890Z,97892.00
2018-08-17T14:01:27.033Z,97885.00
2018-08-17T14:03:57.082Z,97885.00
2018-08-17T14:06:27.232Z,97878.00
2018-08-17T14:08:57.433Z,97880.00
2018-08-17T14:11:27.555Z,97873.00
2018-08-17T14:13:57.654Z,97871.00
2018-08-17T14:16:27.747Z,97868.00
2018-08-17T14:18:57.830Z,97872.00
2018-08-17T14:21:27.978Z,97870.00
2018-08-17T14:23:58.153Z,97869.00
2018-08-17T14:26:29.237Z,97868.00
2018-08-17T14:28:59.431Z,97873.00
2018-08-17T14:31:29.469Z,97864.00
2018-08-17T14:33:59.511Z,97861.00
2018-08-17T14:36:29.632Z,97862.00
2018-08-17T14:38:59.787Z,97864.00
2018-08-17T14:41:29.837Z,97858.00
2018-08-17T14:43:59.968Z,97852.00
2018-08-17T14:46:30.166Z,97845.00
2018-08-17T14:49:00.317Z,97845.00
2018-08-17T14:51:30.356Z,97841.00
2018-08-17T14:54:00.430Z,97840.00
2018-08-17T14:56:30.510Z,97835.00
2018-08-17T14:59:00.592Z,97836.00
2018-08-17T15:01:30.648Z,97839.00
2018-08-17T15:04:00.770Z,97840.00
2018-08-17T15:06:30.901Z,97842.00
2018-08-17T15:09:01.032Z,97842.00
2018-08-17T15:11:31.630Z,97847.00
2018-08-17T15:14:02.583Z,97839.00
2018-08-17T15:16:33.265Z,97834.00
2018-08-17T15:19:03.340Z,97841.00
2018-08-17T15:21:33.484Z,97831.00
2018-08-17T15:24:03.741Z,97830.00
2018-08-17T15:26:34.857Z,97832.00
2018-08-17T15:29:05.116Z,97826.00
2018-08-17T15:31:35.321Z,97822.00
2018-08-17T15:34:05.459Z,97822.00
2018-08-17T15:36:35.560Z,97818.00
2018-08-17T15:39:07.944Z,97818.00
2018-08-17T15:41:44.526Z,97813.00
2018-08-17T15:44:19.281Z,97816.00
2018-08-17T15:46:49.368Z,97815.00
2018-08-17T15:49:27.531Z,97809.00
2018-08-17T15:51:57.683Z,97811.00
2018-08-17T15:54:27.716Z,97805.00
2018-08-17T15:56:58.147Z,97800.00
2018-08-17T15:59:29.753Z,97791.00
2018-08-17T16:02:00.125Z,97795.00
2018-08-17T16:04:30.414Z,97797.00
2018-08-17T16:07:00.585Z,97797.00
2018-08-17T16:09:30.675Z,97786.00
2018-08-17T16:12:00.873Z,97789.00
2018-08-17T16:14:31.074Z,97785.00
2018-08-17T16:17:01.281Z,97788.00
2018-08-17T16:19:31.504Z,97782.00
2018-08-17T16:22:01.622Z,97787.00
2018-08-17T16:24:31.803Z,97790.00
2018-08-17T16:27:01.937Z,97795.00
2018-08-17T16:29:32.017Z,97788.00
2018-08-17T16:32:02.206Z,97787.00
2018-08-17T16:34:32.285Z,97785.00
2018-08-17T16:37:02.627Z,97793.00
2018-08-17T16:39:40.197Z,97791.00
2018-08-17T16:42:10.347Z,97789.00
2018-08-17T16:44:40.698Z,97794.00
2018-08-17T16:47:10.889Z,97799.00
2018-08-17T16:49:41.071Z,97795.00
2018-08-17T16:52:11.163Z,97795.00
2018-08-17T16:54:41.893Z,97805.00
2018-08-17T16:57:11.993Z,97801.00
2018-08-17T16:59:42.132Z,97812.00
2018-08-17T17:02:12.405Z,97812.00
2018-08-17T17:04:43.542Z,97813.00
2018-08-17T17:07:14.164Z,97823.00
2018-08-17T17:09:44.313Z,97826.00
2018-08-17T17:12:18.545Z,97823.00
2018-08-17T17:14:48.666Z,97821.00
2018-08-17T17:17:18.848Z,97829.00
2018-08-17T17:19:48.944Z,97832.00
2018-08-17T17:22:19.684Z,97836.00
2018-08-17T17:24:49.947Z,97837.00
2018-08-17T17:27:20.867Z,97840.00
2018-08-17T17:29:50.995Z,97844.00
2018-08-17T17:32:21.211Z,97849.00
2018-08-17T17:34:51.336Z,97849.00
2018-08-17T17:37:21.416Z,97858.00
2018-08-17T17:39:51.537Z,97859.00
2018-08-17T17:42:22.213Z,97861.00
2018-08-17T17:44:58.392Z,97864.00
2018-08-17T17:47:28.613Z,97869.00
2018-08-17T17:49:59.432Z,97871.00
2018-08-17T17:52:29.562Z,97872.00
2018-08-17T17:55:06.692Z,97875.00
2018-08-17T17:57:36.870Z,97884.00
2018-08-17T18:00:07.038Z,97886.00
2018-08-17T18:02:37.152Z,97885.00
2018-08-17T18:05:07.205Z,97891.00
2018-08-17T18:07:44.300Z,97895.00
2018-08-17T18:10:14.594Z,97891.00
2018-08-17T18:12:44.694Z,97905.00
2018-08-17T18:15:15.252Z,97910.00
2018-08-17T18:17:45.469Z,97932.00
2018-08-17T18:20:15.639Z,97955.00
2018-08-17T18:22:45.798Z,97963.00
2018-08-17T18:25:17.692Z,97967.00
2018-08-17T18:27:49.662Z,97971.00
2018-08-17T18:30:19.826Z,97979.00
2018-08-17T18:32:49.944Z,97982.00
2018-08-17T18:35:20.077Z,97985.00
2018-08-17T18:37:50.373Z,97985.00
2018-08-17T18:40:20.491Z,97983.00
2018-08-17T18:42:50.832Z,97989.00
2018-08-17T18:45:21.521Z,97991.00
2018-08-17T18:47:51.819Z,97994.00
2018-08-17T18:50:21.875Z,98003.00
2018-08-17T18:52:52.158Z,98001.00
2018-08-17T18:55:22.303Z,98009.00
2018-08-17T18:57:53.042Z,98013.00
2018-08-17T19:00:23.179Z,98014.00
2018-08-17T19:02:53.387Z,98019.00
2018-08-17T19:05:23.482Z,98019.00
2018-08-17T19:07:53.651Z,98023.00
2018-08-17T19:10:24.397Z,98026.00
2018-08-17T19:12:54.539Z,98027.00
2018-08-17T19:15:24.719Z,98029.00
2018-08-17T19:17:55.822Z,98028.00
2018-08-17T19:20:26.086Z,98031.00
2018-08-17T19:22:56.278Z,98033.00
2018-08-17T19:25:26.414Z,98030.00
2018-08-17T19:27:56.692Z,98026.00
2018-08-17T19:30:33.733Z,98025.00
2018-08-17T19:33:11.019Z,98023.00
2018-08-17T19:35:47.942Z,98020.00
2018-08-17T19:38:18.460Z,98026.00
2018-08-17T19:40:48.540Z,98023.00
2018-08-17T19:43:18.939Z,98029.00
2018-08-17T19:45:49.684Z,98036.00
2018-08-17T19:48:19.924Z,98043.00
2018-08-17T19:50:50.088Z,98051.00
2018-08-17T19:53:20.188Z,98056.00
2018-08-17T19:55:50.336Z,98066.00
2018-08-17T19:58:20.536Z,98073.00
2018-08-17T20:00:50.529Z,98080.00
2018-08-17T20:03:20.731Z,98083.00
2018-08-17T20:05:51.049Z,98091.00
2018-08-17T20:08:21.197Z,98092.00
2018-08-17T20:10:51.336Z,98099.00
2018-08-17T20:13:21.477Z,98112.00
2018-08-17T20:15:51.744Z,98102.00
2018-08-17T20:18:22.421Z,98104.00
2018-08-17T20:20:52.658Z,98102.00
2018-08-17T20:23:22.884Z,98103.00
2018-08-17T20:25:53.137Z,98100.00
2018-08-17T20:28:23.338Z,98099.00
2018-08-17T20:30:53.488Z,98104.00
2018-08-17T20:33:28.353Z,98104.00
2018-08-17T20:35:58.580Z,98106.00
2018-08-17T20:38:28.807Z,98106.00
2018-08-17T20:41:00.617Z,98107.00
2018-08-17T20:43:30.717Z,98114.00
2018-08-17T20:46:00.832Z,98119.00
2018-08-17T20:48:31.875Z,98118.00
2018-08-17T20:51:08.206Z,98125.00
2018-08-17T20:53:38.351Z,98129.00
2018-08-17T20:56:08.496Z,98130.00
2018-08-17T20:58:39.221Z,98135.00
2018-08-17T21:01:09.405Z,98146.00
2018-08-17T21:03:39.489Z,98143.00
2018-08-17T21:06:09.592Z,98151.00
2018-08-17T21:08:39.653Z,98155.00
2018-08-17T21:11:09.890Z,98159.00
2018-08-17T21:13:40.206Z,98154.00
2018-08-17T21:16:10.415Z,98163.00
2018-08-17T21:18:40.546Z,98161.00
2018-08-17T21:21:12.665Z,98158.00
2018-08-17T21:23:42.792Z,98167.00
2018-08-17T21:26:12.976Z,98163.00
2018-08-17T21:28:44.366Z,98166.00
2018-08-17T21:31:14.421Z,98163.00
2018-08-17T21:33:44.874Z,98161.00
2018-08-17T21:36:15.237Z,98168.00
2018-08-17T21:39:19.328Z,98163.00
2018-08-17T21:41:49.932Z,98164.00
2018-08-17T21:44:21.625Z,98162.00
2018-08-17T21:46:57.318Z,98161.00
2018-08-17T21:49:27.561Z,98165.00
2018-08-17T21:52:02.851Z,98167.00
2018-08-17T21:54:34.012Z,98175.00
2018-08-17T21:57:05.656Z,98176.00
2018-08-17T21:59:41.054Z,98177.00
2018-08-17T22:02:11.895Z,98175.00
2018-08-17T22:04:42.158Z,98172.00
2018-08-17T22:07:18.472Z,98172.00
2018-08-17T22:09:49.288Z,98175.00
2018-08-17T22:12:19.510Z,98180.00
2018-08-17T22:14:50.772Z,98179.00
2018-08-17T22:17:34.639Z,98185.00
2018-08-17T22:20:10.046Z,98187.00
2018-08-17T22:22:40.197Z,98185.00
2018-08-17T22:25:16.320Z,98184.00
2018-08-17T22:27:48.177Z,98188.00
2018-08-17T22:30:21.864Z,98192.00
2018-08-17T22:32:51.969Z,98194.00
2018-08-17T22:35:22.243Z,98213.00
2018-08-17T22:37:52.244Z,98211.00
2018-08-17T22:40:22.420Z,98208.00
2018-08-17T22:42:52.510Z,98203.00
2018-08-17T22:45:22.521Z,98211.00
2018-08-17T22:47:52.616Z,98209.00
2018-08-17T22:50:23.548Z,98218.00
2018-08-17T22:52:54.438Z,98223.00
2018-08-17T22:55:24.653Z,98226.00
2018-08-17T22:57:55.962Z,98224.00
2018-08-17T23:00:27.635Z,98224.00
2018-08-17T23:02:59.455Z,98232.00
2018-08-17T23:05:33.778Z,98233.00
2018-08-17T23:08:03.985Z,98235.00
2018-08-17T23:10:34.141Z,98235.00
2018-08-17T23:13:05.090Z,98233.00
2018-08-17T23:15:35.244Z,98232.00
2018-08-17T23:18:05.533Z,98226.00
2018-08-17T23:20:36.965Z,98230.00
2018-08-17T23:23:08.157Z,98231.00
2018-08-17T23:25:38.341Z,98233.00
2018-08-17T23:28:08.461Z,98238.00
2018-08-17T23:30:38.617Z,98239.00
2018-08-17T23:33:09.223Z,98241.00
2018-08-17T23:35:39.377Z,98241.00
2018-08-17T23:38:10.562Z,98244.00
2018-08-17T23:40:40.716Z,98247.00
2018-08-17T23:43:10.757Z,98248.00
2018-08-17T23:45:40.937Z,98249.00
2018-08-17T23:48:11.619Z,98247.00
2018-08-17T23:50:41.783Z,98258.00
2018-08-17T23:53:12.009Z,98259.00
2018-08-17T23:55:42.253Z,98264.00
2018-08-17T23:58:12.367Z,98267.00
